Impacts TAF Board INFO
FOR SITUATIONAL AWARENESS. NOT TO BE USED FOR FLIGHT PLANNING PURPOSES.
IDs:

KMSP - Minneapolis-St Paul, MN, US

Issued at 0520 UTC 17 Aug 2018
Updated at 0521 UTC 17 Aug 2018
Potential Impact None Slight Moderate High
Time<<18/06Z 18/07Z 18/08Z 18/09Z 18/10Z 18/11Z 18/12Z 18/13Z 18/14Z 18/15Z 18/16Z 18/17Z 18/18Z
Type PRVL PRVL PRVL PRVL PRVL PRVL
VIS >6 >6 >6 >6 >6 >6
CIG -- -- -- -- -- --
Cover SKC SKC SKC SKC SKC SKC
FltCat VFR VFR VFR VFR VFR VFR
WX -- -- -- -- -- --
WDir VRB VRB VRB VRB VRB VRB
WSpd 3 3 3 3 3 3
WGst -- -- -- -- -- --

Raw TAF
KMSP 170520Z 1706/1812 01005KT P6SM SCT250
  FM171600 34007KT P6SM FEW250
  FM180300 VRB03KT P6SM SKC


METAR Board
Radar Display
Forecast Discussion

FOR SITUATIONAL AWARENESS. NOT TO BE USED FOR FLIGHT PLANNING PURPOSES.